createdAt,value
2022-12-11T00:00:46.290Z,12.43
2022-12-11T00:03:15.814Z,12.30
2022-12-11T00:05:43.497Z,12.15
2022-12-11T00:08:10.185Z,12.05
2022-12-11T00:10:37.972Z,10.38
2022-12-11T00:13:04.664Z,12.38
2022-12-11T00:15:31.099Z,11.75
2022-12-11T00:17:57.489Z,11.68
2022-12-11T00:20:23.949Z,11.93
2022-12-11T00:22:50.429Z,11.82
2022-12-11T00:25:16.984Z,11.77
2022-12-11T00:27:45.869Z,12.48
2022-12-11T00:30:12.779Z,12.00
2022-12-11T00:32:39.139Z,10.90
2022-12-11T00:35:05.991Z,11.27
2022-12-11T00:37:32.594Z,11.13
2022-12-11T00:39:59.069Z,11.00
2022-12-11T00:42:25.482Z,11.35
2022-12-11T00:44:52.176Z,10.80
2022-12-11T00:47:18.567Z,10.15
2022-12-11T00:49:49.522Z,10.00
2022-12-11T00:52:17.904Z,10.95
2022-12-11T00:54:44.728Z,10.23
2022-12-11T00:57:11.248Z,10.88
2022-12-11T00:59:38.458Z,10.38
2022-12-11T01:02:04.840Z,9.75
2022-12-11T01:04:31.291Z,10.30
2022-12-11T01:06:57.849Z,10.85
2022-12-11T01:09:42.784Z,10.15
2022-12-11T01:12:09.225Z,10.05
2022-12-11T01:14:35.656Z,10.18
2022-12-11T01:17:02.105Z,10.32
2022-12-11T01:19:28.560Z,10.25
2022-12-11T01:21:54.982Z,9.85
2022-12-11T01:24:21.390Z,9.52
2022-12-11T01:26:47.802Z,10.18
2022-12-11T01:29:14.355Z,9.32
2022-12-11T01:31:41.281Z,9.45
2022-12-11T01:34:07.696Z,9.60
2022-12-11T01:36:34.130Z,9.68
2022-12-11T01:39:00.681Z,9.75
2022-12-11T01:41:27.145Z,9.60
2022-12-11T01:44:01.051Z,10.23
2022-12-11T01:46:28.790Z,9.23
2022-12-11T01:48:56.113Z,9.43
2022-12-11T01:51:23.725Z,9.02
2022-12-11T01:53:55.990Z,9.25
2022-12-11T01:56:22.972Z,9.55
2022-12-11T01:58:56.415Z,9.18
2022-12-11T02:01:45.224Z,8.35
2022-12-11T02:04:13.513Z,8.57
2022-12-11T02:06:43.279Z,8.07
2022-12-11T02:09:14.372Z,8.95
2022-12-11T02:11:59.081Z,8.50
2022-12-11T02:14:48.669Z,8.25
2022-12-11T02:17:33.885Z,8.35
2022-12-11T02:20:38.042Z,8.55
2022-12-11T02:23:13.615Z,8.38
2022-12-11T02:26:01.571Z,8.38
2022-12-11T02:29:09.828Z,9.57
2022-12-11T02:31:44.895Z,8.75
2022-12-11T02:34:16.786Z,9.02
2022-12-11T02:36:46.517Z,8.27
2022-12-11T02:39:15.876Z,8.27
2022-12-11T02:41:46.415Z,8.70
2022-12-11T02:44:14.884Z,8.75
2022-12-11T02:46:43.881Z,9.43
2022-12-11T02:49:12.613Z,9.18
2022-12-11T02:51:44.237Z,9.77
2022-12-11T02:54:16.928Z,9.60
2022-12-11T02:56:48.680Z,10.00
2022-12-11T02:59:23.858Z,9.23
2022-12-11T03:01:50.610Z,9.90
2022-12-11T03:04:17.429Z,10.35
2022-12-11T03:06:49.358Z,10.35
2022-12-11T03:09:15.781Z,9.63
2022-12-11T03:11:42.226Z,9.55
2022-12-11T03:14:08.997Z,9.60
2022-12-11T03:16:38.433Z,9.38
2022-12-11T03:19:07.839Z,8.88
2022-12-11T03:21:47.310Z,9.13
2022-12-11T03:24:45.670Z,10.00
2022-12-11T03:27:19.727Z,9.77
2022-12-11T03:29:58.017Z,9.82
2022-12-11T03:32:29.667Z,9.93
2022-12-11T03:35:05.294Z,10.00
2022-12-11T03:37:36.287Z,9.73
2022-12-11T03:40:08.329Z,9.73
2022-12-11T03:42:35.766Z,10.23
2022-12-11T03:45:03.161Z,10.25
2022-12-11T03:47:30.906Z,9.93
2022-12-11T03:49:59.572Z,10.27
2022-12-11T03:52:27.868Z,10.40
2022-12-11T03:54:57.892Z,10.38
2022-12-11T03:57:27.252Z,10.60
2022-12-11T03:59:53.607Z,9.83
2022-12-11T04:02:20.054Z,10.20
2022-12-11T04:04:46.435Z,10.30
2022-12-11T04:07:12.878Z,12.23
2022-12-11T04:09:39.268Z,11.77
2022-12-11T04:12:06.198Z,11.55
2022-12-11T04:14:51.149Z,11.10
2022-12-11T04:17:37.490Z,11.50
2022-12-11T04:20:24.730Z,11.02
2022-12-11T04:23:09.573Z,10.25
2022-12-11T04:25:35.920Z,11.18
2022-12-11T04:28:02.308Z,10.75
2022-12-11T04:30:33.937Z,10.00
2022-12-11T04:33:01.003Z,9.80
2022-12-11T04:35:27.515Z,10.00
2022-12-11T04:37:53.931Z,10.48
2022-12-11T04:40:20.883Z,10.52
2022-12-11T04:42:48.055Z,10.75
2022-12-11T04:45:14.522Z,10.07
2022-12-11T04:47:41.545Z,9.57
2022-12-11T04:50:13.232Z,9.18
2022-12-11T04:52:40.184Z,10.07
2022-12-11T04:55:08.163Z,9.85
2022-12-11T04:57:34.969Z,9.45
2022-12-11T05:00:02.000Z,9.80
2022-12-11T05:02:28.418Z,9.73
2022-12-11T05:04:54.907Z,9.57
2022-12-11T05:07:21.350Z,10.70
2022-12-11T05:09:47.738Z,10.15
2022-12-11T05:12:14.120Z,10.25
2022-12-11T05:14:40.609Z,10.68
2022-12-11T05:17:07.012Z,10.15
2022-12-11T05:19:33.605Z,10.48
2022-12-11T05:22:00.024Z,10.65
2022-12-11T05:24:26.425Z,10.63
2022-12-11T05:26:52.837Z,11.27
2022-12-11T05:29:19.194Z,11.32
2022-12-11T05:31:45.579Z,12.23
2022-12-11T05:34:11.988Z,12.85
2022-12-11T05:36:38.523Z,12.35
2022-12-11T05:39:05.203Z,12.43
2022-12-11T05:44:22.375Z,11.60
2022-12-11T05:46:49.730Z,11.73
2022-12-11T05:49:19.766Z,12.23
2022-12-11T05:51:46.602Z,13.00
2022-12-11T05:54:13.013Z,11.75
2022-12-11T05:56:39.653Z,11.57
2022-12-11T05:59:06.968Z,12.30
2022-12-11T06:01:42.177Z,12.23
2022-12-11T06:04:10.266Z,12.73
2022-12-11T06:06:37.449Z,11.77
2022-12-11T06:09:04.959Z,12.77
2022-12-11T06:11:32.910Z,11.57
2022-12-11T06:14:00.890Z,12.77
2022-12-11T06:16:27.743Z,12.18
2022-12-11T06:18:57.996Z,12.38
2022-12-11T06:21:30.171Z,12.27
2022-12-11T06:23:58.900Z,12.98
2022-12-11T06:26:25.814Z,12.98
2022-12-11T06:28:52.229Z,14.15
2022-12-11T06:31:19.261Z,13.88
2022-12-11T06:33:45.970Z,14.60
2022-12-11T06:36:15.708Z,13.38
2022-12-11T06:38:42.444Z,14.45
2022-12-11T06:41:09.653Z,14.98
2022-12-11T06:43:38.458Z,15.55
2022-12-11T06:46:06.330Z,16.15
2022-12-11T06:48:33.630Z,16.45
2022-12-11T06:51:00.388Z,17.48
2022-12-11T06:53:26.751Z,15.98
2022-12-11T06:55:53.127Z,16.33
2022-12-11T06:58:19.538Z,16.95
2022-12-11T07:00:46.394Z,16.65
2022-12-11T07:03:13.678Z,17.35
2022-12-11T07:05:40.178Z,16.77
2022-12-11T07:08:07.389Z,15.93
2022-12-11T07:10:34.073Z,16.80
2022-12-11T07:13:00.433Z,16.35
2022-12-11T07:15:26.805Z,16.27
2022-12-11T07:17:53.206Z,16.58
2022-12-11T07:20:19.652Z,15.77
2022-12-11T07:22:46.759Z,15.05
2022-12-11T07:25:13.897Z,15.23
2022-12-11T07:27:41.492Z,15.10
2022-12-11T07:30:09.213Z,15.98
2022-12-11T07:32:35.684Z,15.23
2022-12-11T07:35:02.164Z,15.20
2022-12-11T07:37:28.524Z,15.52
2022-12-11T07:39:54.937Z,15.68
2022-12-11T07:42:21.396Z,16.63
2022-12-11T07:44:48.515Z,16.80
2022-12-11T07:47:14.884Z,17.77
2022-12-11T07:49:41.337Z,20.02
2022-12-11T07:52:07.791Z,17.35
2022-12-11T07:54:34.139Z,16.92
2022-12-11T07:57:00.533Z,15.38
2022-12-11T07:59:26.900Z,15.32
2022-12-11T08:01:53.347Z,14.95
2022-12-11T08:04:19.768Z,16.20
2022-12-11T08:06:46.199Z,16.50
2022-12-11T08:09:20.712Z,15.98
2022-12-11T08:11:54.293Z,15.15
2022-12-11T08:14:20.898Z,15.10
2022-12-11T08:16:47.680Z,14.60
2022-12-11T08:19:14.633Z,14.95
2022-12-11T08:21:41.165Z,14.90
2022-12-11T08:24:08.830Z,15.25
2022-12-11T08:26:35.446Z,14.82
2022-12-11T08:29:02.660Z,14.70
2022-12-11T08:31:29.806Z,16.10
2022-12-11T08:33:56.894Z,16.30
2022-12-11T08:36:23.914Z,15.95
2022-12-11T08:38:51.713Z,14.60
2022-12-11T08:41:21.234Z,14.43
2022-12-11T08:43:48.384Z,15.02
2022-12-11T08:46:15.333Z,14.48
2022-12-11T08:48:43.252Z,14.77
2022-12-11T08:51:14.871Z,15.85
2022-12-11T08:53:41.477Z,15.52
2022-12-11T08:56:13.156Z,14.55
2022-12-11T08:58:39.576Z,14.85
2022-12-11T09:01:12.199Z,14.57
2022-12-11T09:03:39.998Z,14.35
2022-12-11T09:06:12.161Z,14.82
2022-12-11T09:08:38.700Z,14.25
2022-12-11T09:11:07.405Z,17.77
2022-12-11T09:13:33.991Z,16.23
2022-12-11T09:16:00.610Z,15.70
2022-12-11T09:18:27.279Z,15.75
2022-12-11T09:21:05.321Z,14.77
2022-12-11T09:23:32.063Z,15.38
2022-12-11T09:25:58.742Z,14.65
2022-12-11T09:28:25.960Z,14.50
2022-12-11T09:30:52.776Z,14.10
2022-12-11T09:33:19.226Z,13.88
2022-12-11T09:35:45.589Z,13.88
2022-12-11T09:38:11.964Z,13.50
2022-12-11T09:40:43.102Z,13.80
2022-12-11T09:43:20.042Z,14.70
2022-12-11T09:45:46.633Z,13.77
2022-12-11T09:48:22.478Z,14.70
2022-12-11T09:50:53.814Z,14.95
2022-12-11T09:53:36.991Z,16.33
2022-12-11T09:56:06.422Z,16.30
2022-12-11T09:58:56.028Z,16.37
2022-12-11T10:01:30.144Z,16.13
2022-12-11T10:03:59.508Z,15.68
2022-12-11T10:06:36.506Z,17.30
2022-12-11T10:09:25.463Z,17.38
2022-12-11T10:12:21.086Z,16.70
2022-12-11T10:15:15.128Z,16.13
2022-12-11T10:17:44.584Z,16.30
2022-12-11T10:20:29.227Z,16.58
2022-12-11T10:22:56.948Z,16.13
2022-12-11T10:25:29.621Z,16.02
2022-12-11T10:27:56.197Z,16.10
2022-12-11T10:30:25.973Z,15.73
2022-12-11T10:33:08.931Z,16.17
2022-12-11T10:35:52.990Z,15.45
2022-12-11T10:38:31.120Z,14.70
2022-12-11T10:41:01.795Z,14.55
2022-12-11T10:43:40.268Z,15.13
2022-12-11T10:46:12.989Z,18.52
2022-12-11T10:48:54.368Z,15.15
2022-12-11T10:51:32.883Z,16.50
2022-12-11T10:54:30.912Z,16.48
2022-12-11T10:56:58.736Z,15.80
2022-12-11T10:59:38.798Z,15.77
2022-12-11T11:02:07.087Z,15.60
2022-12-11T11:04:37.754Z,16.58
2022-12-11T11:07:23.561Z,15.10
2022-12-11T11:09:54.259Z,14.98
2022-12-11T11:12:22.526Z,14.77
2022-12-11T11:15:02.484Z,15.15
2022-12-11T11:17:34.962Z,15.45
2022-12-11T11:20:11.974Z,16.67
2022-12-11T11:22:49.807Z,15.57
2022-12-11T11:25:28.712Z,16.20
2022-12-11T11:27:56.639Z,15.38
2022-12-11T11:30:31.852Z,15.10
2022-12-11T11:33:02.227Z,14.65
2022-12-11T11:38:18.762Z,15.23
2022-12-11T11:41:04.880Z,13.40
2022-12-11T11:43:44.233Z,14.32
2022-12-11T11:46:29.347Z,15.55
2022-12-11T11:49:13.069Z,15.35
2022-12-11T11:52:11.953Z,16.38
2022-12-11T11:54:57.069Z,15.52
2022-12-11T11:57:33.763Z,15.10
2022-12-11T12:00:10.799Z,14.93
2022-12-11T12:02:37.628Z,15.00
2022-12-11T12:05:04.528Z,14.77
2022-12-11T12:07:53.729Z,14.50
2022-12-11T12:10:40.288Z,15.02
2022-12-11T12:13:47.710Z,15.85
2022-12-11T12:16:22.906Z,14.68
2022-12-11T12:19:25.857Z,14.18
2022-12-11T12:21:53.114Z,14.15
2022-12-11T12:24:49.035Z,14.05
2022-12-11T12:27:50.992Z,14.50
2022-12-11T12:30:22.006Z,14.73
2022-12-11T12:33:20.952Z,15.03
2022-12-11T12:36:02.085Z,13.85
2022-12-11T12:39:02.392Z,14.23
2022-12-11T12:42:07.105Z,15.18
2022-12-11T12:44:59.492Z,14.13
2022-12-11T12:47:30.333Z,13.85
2022-12-11T12:49:59.438Z,13.13
2022-12-11T12:52:31.980Z,14.20
2022-12-11T12:55:16.084Z,13.95
2022-12-11T12:57:49.842Z,14.63
2022-12-11T13:00:30.886Z,14.10
2022-12-11T13:02:58.413Z,14.18
2022-12-11T13:05:32.775Z,14.75
2022-12-11T13:08:02.477Z,14.10
2022-12-11T13:10:41.449Z,15.68
2022-12-11T13:13:34.123Z,15.52
2022-12-11T13:16:17.333Z,14.80
2022-12-11T13:18:47.416Z,14.23
2022-12-11T13:21:35.954Z,15.13
2022-12-11T13:24:25.727Z,14.98
2022-12-11T13:26:52.425Z,14.60
2022-12-11T13:29:35.621Z,15.35
2022-12-11T13:32:23.402Z,14.25
2022-12-11T13:34:57.351Z,14.27
2022-12-11T13:37:33.847Z,14.80
2022-12-11T13:40:05.563Z,15.10
2022-12-11T13:42:35.300Z,14.52
2022-12-11T13:45:03.129Z,12.40
2022-12-11T13:47:32.361Z,15.20
2022-12-11T13:50:28.261Z,14.93
2022-12-11T13:52:55.940Z,15.23
2022-12-11T13:55:28.454Z,16.52
2022-12-11T13:57:54.822Z,15.95
2022-12-11T14:00:30.341Z,15.05
2022-12-11T14:02:59.162Z,15.90
2022-12-11T14:05:25.534Z,15.98
2022-12-11T14:07:55.403Z,14.68
2022-12-11T14:10:27.862Z,15.32
2022-12-11T14:13:05.337Z,15.98
2022-12-11T14:15:33.487Z,14.15
2022-12-11T14:18:00.790Z,15.30
2022-12-11T14:20:29.771Z,14.60
2022-12-11T14:23:06.574Z,14.80
2022-12-11T14:25:33.542Z,15.80
2022-12-11T14:28:01.626Z,16.25
2022-12-11T14:30:31.633Z,15.68
2022-12-11T14:33:04.501Z,15.90
2022-12-11T14:35:39.458Z,15.50
2022-12-11T14:38:24.304Z,14.27
2022-12-11T14:40:56.363Z,14.77
2022-12-11T14:43:28.782Z,14.82
2022-12-11T14:45:59.073Z,14.48
2022-12-11T14:50:58.901Z,13.40
2022-12-11T14:53:37.012Z,13.77
2022-12-11T14:56:07.072Z,14.55
2022-12-11T14:58:40.430Z,15.38
2022-12-11T15:01:23.922Z,15.60
2022-12-11T15:03:50.415Z,16.13
2022-12-11T15:06:26.174Z,16.42
2022-12-11T15:08:53.509Z,16.20
2022-12-11T15:11:20.346Z,15.80
2022-12-11T15:13:54.351Z,16.60
2022-12-11T15:16:22.891Z,16.02
2022-12-11T15:18:51.335Z,15.90
2022-12-11T15:21:18.549Z,16.15
2022-12-11T15:23:44.814Z,15.68
2022-12-11T15:26:11.158Z,15.48
2022-12-11T15:28:39.092Z,16.35
2022-12-11T15:31:20.796Z,14.95
2022-12-11T15:33:47.897Z,16.75
2022-12-11T15:36:30.895Z,15.52
2022-12-11T15:38:58.126Z,15.25
2022-12-11T15:41:25.247Z,14.73
2022-12-11T15:43:58.889Z,13.43
2022-12-11T15:46:26.075Z,13.13
2022-12-11T15:48:52.546Z,13.90
2022-12-11T15:51:18.923Z,13.40
2022-12-11T15:53:45.264Z,13.43
2022-12-11T15:56:14.814Z,13.20
2022-12-11T15:58:42.259Z,14.23
2022-12-11T16:01:08.845Z,13.07
2022-12-11T16:03:35.453Z,14.25
2022-12-11T16:06:01.870Z,14.07
2022-12-11T16:08:28.259Z,13.32
2022-12-11T16:10:55.252Z,15.38
2022-12-11T16:13:22.401Z,14.88
2022-12-11T16:15:51.763Z,14.30
2022-12-11T16:18:21.958Z,14.05
2022-12-11T16:20:49.992Z,13.45
2022-12-11T16:23:17.247Z,13.20
2022-12-11T16:25:45.340Z,14.70
2022-12-11T16:28:14.693Z,14.85
2022-12-11T16:30:43.314Z,13.95
2022-12-11T16:33:12.908Z,14.77
2022-12-11T16:35:40.151Z,14.90
2022-12-11T16:38:07.673Z,14.45
2022-12-11T16:40:34.003Z,14.45
2022-12-11T16:43:00.323Z,13.38
2022-12-11T16:45:27.344Z,13.88
2022-12-11T16:47:54.324Z,15.00
2022-12-11T16:50:20.992Z,14.10
2022-12-11T16:52:47.411Z,15.13
2022-12-11T16:55:14.863Z,14.68
2022-12-11T16:57:41.922Z,14.57
2022-12-11T17:00:12.017Z,14.82
2022-12-11T17:02:38.393Z,13.98
2022-12-11T17:05:05.124Z,14.60
2022-12-11T17:07:32.745Z,13.20
2022-12-11T17:10:00.574Z,13.93
2022-12-11T17:12:27.908Z,13.70
2022-12-11T17:14:55.398Z,13.68
2022-12-11T17:17:21.722Z,13.73
2022-12-11T17:19:48.074Z,13.68
2022-12-11T17:22:14.412Z,13.63
2022-12-11T17:24:40.799Z,14.02
2022-12-11T17:27:07.123Z,13.38
2022-12-11T17:29:33.490Z,13.93
2022-12-11T17:31:59.838Z,13.38
2022-12-11T17:34:26.174Z,14.25
2022-12-11T17:36:52.516Z,13.57
2022-12-11T17:39:18.839Z,13.52
2022-12-11T17:41:45.217Z,13.27
2022-12-11T17:44:11.618Z,13.63
2022-12-11T17:46:38.079Z,13.50
2022-12-11T17:49:05.172Z,14.10
2022-12-11T17:51:31.555Z,14.32
2022-12-11T17:53:58.282Z,13.63
2022-12-11T17:56:25.581Z,14.07
2022-12-11T17:58:51.970Z,15.52
2022-12-11T18:01:19.372Z,14.40
2022-12-11T18:03:46.824Z,13.32
2022-12-11T18:06:15.374Z,13.77
2022-12-11T18:08:42.653Z,14.35
2022-12-11T18:11:17.606Z,14.20
2022-12-11T18:13:45.150Z,14.40
2022-12-11T18:16:14.648Z,14.40
2022-12-11T18:18:41.038Z,11.93
2022-12-11T18:21:10.380Z,13.98
2022-12-11T18:23:36.737Z,13.82
2022-12-11T18:26:03.071Z,14.10
2022-12-11T18:28:31.684Z,14.35
2022-12-11T18:31:02.131Z,14.80
2022-12-11T18:33:29.886Z,14.38
2022-12-11T18:35:56.507Z,14.35
2022-12-11T18:38:23.163Z,14.50
2022-12-11T18:40:49.499Z,13.90
2022-12-11T18:43:15.873Z,15.10
2022-12-11T18:45:45.086Z,13.80
2022-12-11T18:48:11.992Z,14.10
2022-12-11T18:50:38.329Z,14.95
2022-12-11T18:53:04.691Z,14.77
2022-12-11T18:55:31.027Z,14.18
2022-12-11T18:57:57.341Z,14.43
2022-12-11T19:00:23.725Z,13.90
2022-12-11T19:02:52.152Z,14.25
2022-12-11T19:05:18.617Z,14.27
2022-12-11T19:07:45.048Z,14.43
2022-12-11T19:10:11.710Z,14.77
2022-12-11T19:12:38.103Z,14.38
2022-12-11T19:15:04.893Z,15.10
2022-12-11T19:17:31.206Z,15.75
2022-12-11T19:19:57.650Z,14.82
2022-12-11T19:22:24.004Z,14.32
2022-12-11T19:24:51.078Z,15.02
2022-12-11T19:27:17.441Z,14.13
2022-12-11T19:29:43.791Z,14.23
2022-12-11T19:32:10.130Z,13.25
2022-12-11T19:34:38.413Z,14.32
2022-12-11T19:37:04.786Z,14.15
2022-12-11T19:39:31.150Z,14.35
2022-12-11T19:41:57.553Z,13.82
2022-12-11T19:44:23.911Z,14.10
2022-12-11T19:46:50.389Z,13.88
2022-12-11T19:49:16.981Z,13.90
2022-12-11T19:51:43.552Z,12.98
2022-12-11T19:54:13.499Z,13.38
2022-12-11T19:56:40.475Z,13.90
2022-12-11T19:59:09.729Z,13.27
2022-12-11T20:01:37.732Z,12.70
2022-12-11T20:04:10.611Z,12.85
2022-12-11T20:06:41.681Z,13.25
2022-12-11T20:09:11.684Z,12.48
2022-12-11T20:11:43.745Z,13.05
2022-12-11T20:14:21.981Z,13.30
2022-12-11T20:17:18.698Z,12.27
2022-12-11T20:19:35.342Z,12.05
2022-12-11T20:22:01.755Z,12.63
2022-12-11T20:24:28.120Z,12.52
2022-12-11T20:26:54.544Z,13.23
2022-12-11T20:29:20.876Z,13.27
2022-12-11T20:31:50.331Z,13.43
2022-12-11T20:34:16.953Z,13.57
2022-12-11T20:36:43.390Z,14.63
2022-12-11T20:39:10.353Z,13.88
2022-12-11T20:41:36.687Z,15.73
2022-12-11T20:44:03.093Z,16.55
2022-12-11T20:46:29.465Z,15.48
2022-12-11T20:48:58.666Z,16.10
2022-12-11T20:51:26.670Z,15.30
2022-12-11T20:54:01.083Z,15.98
2022-12-11T20:56:29.546Z,14.80
2022-12-11T20:58:56.895Z,14.77
2022-12-11T21:01:25.632Z,14.68
2022-12-11T21:03:53.424Z,14.40
2022-12-11T21:06:19.667Z,15.10
2022-12-11T21:08:46.074Z,15.50
2022-12-11T21:11:12.478Z,13.95
2022-12-11T21:13:38.912Z,14.77
2022-12-11T21:16:06.931Z,13.68
2022-12-11T21:18:33.903Z,14.45
2022-12-11T21:21:00.364Z,15.25
2022-12-11T21:23:26.869Z,15.10
2022-12-11T21:25:53.889Z,14.43
2022-12-11T21:28:20.844Z,15.35
2022-12-11T21:30:47.353Z,15.55
2022-12-11T21:33:13.708Z,16.48
2022-12-11T21:35:40.050Z,16.52
2022-12-11T21:38:06.369Z,15.90
2022-12-11T21:40:32.710Z,15.80
2022-12-11T21:42:59.090Z,16.00
2022-12-11T21:45:59.161Z,15.40
2022-12-11T21:48:11.997Z,15.35
2022-12-11T21:50:38.345Z,14.75
2022-12-11T21:53:04.774Z,14.45
2022-12-11T21:55:31.677Z,15.15
2022-12-11T21:57:58.011Z,15.32
2022-12-11T22:00:24.705Z,15.07
2022-12-11T22:02:51.184Z,14.68
2022-12-11T22:05:17.542Z,15.10
2022-12-11T22:07:43.868Z,14.73
2022-12-11T22:10:10.590Z,15.10
2022-12-11T22:12:36.936Z,14.85
2022-12-11T22:15:03.786Z,15.20
2022-12-11T22:17:31.527Z,16.15
2022-12-11T22:19:57.855Z,15.48
2022-12-11T22:22:24.175Z,15.93
2022-12-11T22:24:50.751Z,16.98
2022-12-11T22:27:23.322Z,15.40
2022-12-11T22:29:50.180Z,15.68
2022-12-11T22:32:16.537Z,16.23
2022-12-11T22:34:42.908Z,16.00
2022-12-11T22:37:09.238Z,15.60
2022-12-11T22:39:35.608Z,15.20
2022-12-11T22:42:01.934Z,14.25
2022-12-11T22:44:28.332Z,13.88
2022-12-11T22:46:54.657Z,14.05
2022-12-11T22:49:21.059Z,13.95
2022-12-11T22:51:47.505Z,13.05
2022-12-11T22:54:13.866Z,13.90
2022-12-11T22:56:40.326Z,14.38
2022-12-11T22:59:07.513Z,13.23
2022-12-11T23:01:34.165Z,12.80
2022-12-11T23:04:00.493Z,13.75
2022-12-11T23:06:26.819Z,12.88
2022-12-11T23:08:57.451Z,12.68
2022-12-11T23:11:27.150Z,13.27
2022-12-11T23:13:54.575Z,12.93
2022-12-11T23:16:22.616Z,13.43
2022-12-11T23:18:49.014Z,12.77
2022-12-11T23:21:15.412Z,13.40
2022-12-11T23:23:42.762Z,12.85
2022-12-11T23:26:11.872Z,13.40
2022-12-11T23:28:38.419Z,13.50
2022-12-11T23:31:05.050Z,12.30
2022-12-11T23:33:31.549Z,13.02
2022-12-11T23:35:58.413Z,12.95
2022-12-11T23:38:24.970Z,13.05
2022-12-11T23:40:51.680Z,12.80
2022-12-11T23:43:18.173Z,13.40
2022-12-11T23:45:45.833Z,13.23
2022-12-11T23:48:12.789Z,12.93
2022-12-11T23:50:40.734Z,13.35
2022-12-11T23:53:07.520Z,12.80
2022-12-11T23:55:33.860Z,12.77
2022-12-11T23:58:00.183Z,12.13
